Terminal Aerodrome Forecast
Issued by NWS Bismarck, ND

Home | Current Version | Previous Version | Text Only | Print | Product List | Glossary Off
Versions: 1 2 3 4 5 6 7 8 9 10 11 12 13 14 15 16

000
FTUS43 KBIS 211100
TAFISN
TAF
KISN 211130Z 2112/2212 31007KT P6SM BKN012
      TEMPO 2115/2117 SCT020
     FM211700 30008KT P6SM SKC
     FM212300 VRB03KT P6SM FEW300
     FM220200 11004KT P6SM SCT250=

USA.gov is the U.S. government's official web portal to all federal, state and local government web resources and services.